createdAt,value
2018-06-10T00:00:06.757Z,20.33
2018-06-10T00:02:34.886Z,19.97
2018-06-10T00:05:03.038Z,19.57
2018-06-10T00:07:31.182Z,21.07
2018-06-10T00:09:59.342Z,19.90
2018-06-10T00:12:27.466Z,27.33
2018-06-10T00:14:55.645Z,22.03
2018-06-10T00:17:23.783Z,22.47
2018-06-10T00:19:51.932Z,22.10
2018-06-10T00:22:20.071Z,22.47
2018-06-10T00:24:48.198Z,21.70
2018-06-10T00:27:16.350Z,23.00
2018-06-10T00:29:44.481Z,22.50
2018-06-10T00:32:12.626Z,25.20
2018-06-10T00:34:40.750Z,22.90
2018-06-10T00:37:08.899Z,22.43
2018-06-10T00:39:37.038Z,24.93
2018-06-10T00:42:05.214Z,24.63
2018-06-10T00:44:33.359Z,26.73
2018-06-10T00:47:01.502Z,25.47
2018-06-10T00:49:29.620Z,23.90
2018-06-10T00:51:57.751Z,24.60
2018-06-10T00:54:25.902Z,23.97
2018-06-10T00:56:54.036Z,23.37
2018-06-10T00:59:22.210Z,24.23
2018-06-10T01:01:50.357Z,24.17
2018-06-10T01:04:18.482Z,26.50
2018-06-10T01:06:46.646Z,24.67
2018-06-10T01:09:14.778Z,24.17
2018-06-10T01:11:42.933Z,23.97
2018-06-10T01:14:11.074Z,29.00
2018-06-10T01:16:39.245Z,26.40
2018-06-10T01:19:07.385Z,26.40
2018-06-10T01:21:35.510Z,25.60
2018-06-10T01:24:03.642Z,24.73
2018-06-10T01:26:37.055Z,24.80
2018-06-10T01:29:05.225Z,24.77
2018-06-10T01:31:33.367Z,23.40
2018-06-10T01:34:01.533Z,24.60
2018-06-10T01:36:29.674Z,24.47
2018-06-10T01:38:57.837Z,25.30
2018-06-10T01:41:25.971Z,26.27
2018-06-10T01:43:54.117Z,25.07
2018-06-10T01:46:22.262Z,26.27
2018-06-10T01:48:50.415Z,25.57
2018-06-10T01:51:18.591Z,26.77
2018-06-10T01:53:46.740Z,26.13
2018-06-10T01:56:14.866Z,27.53
2018-06-10T01:58:43.010Z,26.37
2018-06-10T02:01:11.145Z,29.57
2018-06-10T02:03:39.317Z,27.77
2018-06-10T02:06:07.453Z,27.47
2018-06-10T02:08:35.611Z,30.40
2018-06-10T02:11:03.740Z,28.30
2018-06-10T02:13:31.912Z,27.30
2018-06-10T02:16:00.048Z,27.60
2018-06-10T02:18:28.203Z,24.93
2018-06-10T02:20:56.371Z,25.07
2018-06-10T02:23:24.964Z,24.87
2018-06-10T02:25:53.157Z,27.20
2018-06-10T02:28:21.371Z,22.60
2018-06-10T02:30:49.531Z,22.93
2018-06-10T02:33:17.658Z,20.63
2018-06-10T02:35:45.810Z,22.53
2018-06-10T02:38:13.938Z,22.07
2018-06-10T02:40:42.076Z,23.07
2018-06-10T02:43:10.198Z,21.87
2018-06-10T02:45:38.338Z,22.63
2018-06-10T02:48:06.464Z,21.40
2018-06-10T02:50:34.610Z,24.00
2018-06-10T02:53:02.752Z,23.90
2018-06-10T02:55:30.910Z,26.43
2018-06-10T02:57:59.041Z,25.00
2018-06-10T03:00:27.193Z,27.13
2018-06-10T03:02:55.335Z,26.67
2018-06-10T03:05:23.499Z,27.03
2018-06-10T03:07:51.648Z,26.50
2018-06-10T03:10:19.797Z,28.90
2018-06-10T03:12:47.937Z,27.57
2018-06-10T03:15:16.091Z,33.50
2018-06-10T03:17:44.218Z,32.83
2018-06-10T03:20:12.362Z,35.30
2018-06-10T03:22:40.506Z,32.53
2018-06-10T03:25:08.637Z,34.53
2018-06-10T03:27:36.782Z,37.07
2018-06-10T03:30:04.911Z,34.80
2018-06-10T03:32:33.026Z,39.07
2018-06-10T03:35:01.158Z,35.63
2018-06-10T03:37:29.310Z,36.03
2018-06-10T03:39:57.439Z,38.40
2018-06-10T03:42:25.615Z,37.03
2018-06-10T03:44:53.762Z,41.30
2018-06-10T03:47:21.936Z,39.93
2018-06-10T03:49:50.082Z,45.53
2018-06-10T03:52:18.243Z,45.67
2018-06-10T03:54:46.393Z,39.67
2018-06-10T03:57:14.545Z,36.10
2018-06-10T03:59:42.657Z,46.30
2018-06-10T04:02:10.829Z,38.83
2018-06-10T04:04:38.960Z,45.67
2018-06-10T04:07:07.122Z,36.40
2018-06-10T04:09:35.250Z,41.77
2018-06-10T04:12:03.414Z,43.40
2018-06-10T04:14:31.573Z,41.80
2018-06-10T04:16:59.733Z,40.00
2018-06-10T04:19:27.874Z,42.33
2018-06-10T04:21:56.011Z,40.20
2018-06-10T04:24:24.165Z,41.07
2018-06-10T04:26:52.309Z,40.60
2018-06-10T04:29:20.430Z,39.47
2018-06-10T04:31:48.561Z,37.23
2018-06-10T04:34:16.689Z,38.97
2018-06-10T04:36:44.820Z,41.77
2018-06-10T04:39:12.953Z,36.67
2018-06-10T04:41:41.091Z,37.77
2018-06-10T04:44:09.221Z,38.63
2018-06-10T04:46:37.345Z,35.73
2018-06-10T04:49:05.497Z,39.70
2018-06-10T04:51:33.626Z,37.70
2018-06-10T04:54:01.788Z,43.63
2018-06-10T04:56:29.947Z,38.13
2018-06-10T04:58:58.128Z,35.00
2018-06-10T05:01:26.265Z,39.80
2018-06-10T05:03:54.439Z,39.03
2018-06-10T05:06:22.563Z,38.93
2018-06-10T05:08:50.721Z,35.10
2018-06-10T05:11:18.861Z,38.90
2018-06-10T05:13:47.011Z,42.47
2018-06-10T05:16:15.148Z,38.23
2018-06-10T05:18:43.300Z,38.63
2018-06-10T05:21:11.415Z,39.17
2018-06-10T05:23:39.569Z,40.13
2018-06-10T05:26:07.690Z,37.07
2018-06-10T05:28:35.852Z,37.57
2018-06-10T05:31:04.037Z,39.63
2018-06-10T05:33:32.174Z,41.20
2018-06-10T05:36:00.298Z,37.40
2018-06-10T05:38:28.441Z,37.73
2018-06-10T05:40:56.588Z,38.23
2018-06-10T05:43:24.730Z,42.63
2018-06-10T05:45:52.877Z,37.97
2018-06-10T05:48:21.006Z,38.27
2018-06-10T05:50:49.145Z,37.07
2018-06-10T05:53:17.273Z,39.13
2018-06-10T05:55:45.402Z,35.73
2018-06-10T05:58:13.538Z,36.67
2018-06-10T06:00:41.698Z,34.60
2018-06-10T06:03:09.818Z,38.87
2018-06-10T06:05:37.985Z,33.93
2018-06-10T06:08:06.110Z,38.77
2018-06-10T06:10:34.266Z,34.80
2018-06-10T06:13:02.390Z,36.27
2018-06-10T06:15:30.525Z,36.23
2018-06-10T06:17:58.669Z,34.93
2018-06-10T06:20:26.835Z,33.93
2018-06-10T06:22:54.961Z,37.07
2018-06-10T06:25:23.115Z,33.97
2018-06-10T06:27:51.258Z,34.90
2018-06-10T06:30:19.410Z,35.77
2018-06-10T06:32:47.546Z,35.33
2018-06-10T06:35:15.705Z,39.63
2018-06-10T06:37:43.871Z,38.63
2018-06-10T06:40:12.025Z,33.77
2018-06-10T06:42:40.162Z,36.63
2018-06-10T06:45:08.290Z,34.90
2018-06-10T06:47:36.426Z,35.43
2018-06-10T06:50:04.582Z,35.73
2018-06-10T06:52:32.724Z,39.30
2018-06-10T06:55:00.884Z,32.97
2018-06-10T06:57:29.131Z,34.87
2018-06-10T06:59:57.261Z,34.07
2018-06-10T07:02:25.402Z,33.90
2018-06-10T07:04:53.555Z,31.97
2018-06-10T07:07:21.694Z,31.50
2018-06-10T07:09:49.838Z,33.87
2018-06-10T07:12:17.987Z,29.53
2018-06-10T07:14:46.122Z,29.53
2018-06-10T07:17:14.267Z,29.43
2018-06-10T07:19:42.438Z,30.60
2018-06-10T07:22:10.589Z,28.10
2018-06-10T07:24:38.729Z,28.73
2018-06-10T07:27:06.875Z,27.33
2018-06-10T07:29:35.010Z,25.63
2018-06-10T07:32:03.670Z,24.70
2018-06-10T07:34:31.795Z,25.53
2018-06-10T07:36:59.964Z,25.10
2018-06-10T07:39:28.114Z,25.07
2018-06-10T07:41:56.278Z,23.60
2018-06-10T07:44:24.430Z,24.23
2018-06-10T07:46:52.573Z,24.40
2018-06-10T07:49:20.715Z,22.80
2018-06-10T07:51:48.886Z,21.10
2018-06-10T07:54:17.041Z,20.57
2018-06-10T07:56:45.194Z,20.93
2018-06-10T07:59:13.326Z,21.27
2018-06-10T08:01:41.461Z,20.83
2018-06-10T08:04:09.588Z,21.47
2018-06-10T08:06:37.722Z,22.43
2018-06-10T08:09:07.218Z,20.43
2018-06-10T08:11:35.357Z,20.60
2018-06-10T08:14:03.494Z,20.30
2018-06-10T08:16:31.656Z,18.60
2018-06-10T08:19:00.293Z,19.50
2018-06-10T08:21:28.422Z,19.70
2018-06-10T08:23:56.591Z,19.20
2018-06-10T08:26:24.755Z,20.07
2018-06-10T08:28:52.874Z,18.87
2018-06-10T08:31:21.011Z,19.83
2018-06-10T08:33:49.168Z,20.43
2018-06-10T08:36:17.294Z,20.13
2018-06-10T08:38:45.448Z,19.93
2018-06-10T08:41:13.578Z,20.13
2018-06-10T08:43:41.773Z,20.80
2018-06-10T08:46:09.897Z,19.87
2018-06-10T08:48:38.056Z,19.53
2018-06-10T08:51:06.202Z,20.27
2018-06-10T08:53:34.337Z,19.70
2018-06-10T08:56:02.466Z,18.80
2018-06-10T08:58:30.589Z,20.73
2018-06-10T09:00:58.725Z,18.97
2018-06-10T09:03:26.903Z,19.03
2018-06-10T09:05:55.047Z,20.13
2018-06-10T09:08:23.176Z,19.97
2018-06-10T09:10:51.311Z,19.00
2018-06-10T09:13:19.434Z,20.53
2018-06-10T09:15:47.579Z,20.63
2018-06-10T09:18:15.728Z,20.40
2018-06-10T09:20:43.846Z,20.63
2018-06-10T09:23:12.001Z,19.47
2018-06-10T09:25:40.141Z,18.10
2018-06-10T09:28:08.269Z,20.03
2018-06-10T09:30:36.389Z,21.00
2018-06-10T09:33:04.546Z,21.63
2018-06-10T09:35:32.721Z,21.80
2018-06-10T09:38:00.866Z,22.07
2018-06-10T09:40:29.050Z,21.37
2018-06-10T09:42:57.188Z,20.37
2018-06-10T09:45:25.371Z,20.33
2018-06-10T09:47:53.511Z,18.37
2018-06-10T09:50:21.638Z,18.90
2018-06-10T09:52:49.781Z,17.00
2018-06-10T09:55:17.996Z,18.60
2018-06-10T09:57:46.918Z,17.90
2018-06-10T10:00:20.509Z,19.23
2018-06-10T10:02:48.675Z,19.87
2018-06-10T10:05:16.791Z,20.13
2018-06-10T10:07:44.934Z,23.37
2018-06-10T10:10:13.080Z,23.17
2018-06-10T10:12:41.249Z,26.00
2018-06-10T10:15:09.397Z,26.07
2018-06-10T10:17:37.546Z,25.30
2018-06-10T10:20:05.685Z,24.83
2018-06-10T10:22:33.808Z,24.87
2018-06-10T10:25:02.017Z,22.40
2018-06-10T10:27:30.576Z,22.00
2018-06-10T10:29:58.697Z,22.63
2018-06-10T10:32:26.850Z,22.83
2018-06-10T10:34:54.998Z,22.83
2018-06-10T10:37:23.158Z,20.23
2018-06-10T10:39:51.281Z,22.23
2018-06-10T10:42:19.428Z,21.53
2018-06-10T10:44:47.582Z,21.90
2018-06-10T10:47:15.737Z,22.17
2018-06-10T10:49:43.875Z,22.80
2018-06-10T10:52:12.027Z,22.47
2018-06-10T10:54:40.997Z,21.70
2018-06-10T10:57:09.157Z,21.77
2018-06-10T10:59:37.661Z,21.80
2018-06-10T11:02:05.793Z,20.73
2018-06-10T11:04:33.929Z,20.63
2018-06-10T11:07:02.065Z,21.07
2018-06-10T11:09:30.865Z,19.47
2018-06-10T11:11:59.018Z,20.20
2018-06-10T11:14:27.164Z,23.13
2018-06-10T11:16:55.286Z,25.67
2018-06-10T11:19:23.414Z,26.10
2018-06-10T11:21:51.551Z,26.80
2018-06-10T11:24:19.698Z,28.73
2018-06-10T11:26:47.836Z,28.50
2018-06-10T11:29:15.974Z,29.67
2018-06-10T11:31:44.118Z,28.97
2018-06-10T11:34:12.279Z,32.87
2018-06-10T11:36:40.428Z,32.23
2018-06-10T11:39:08.881Z,32.83
2018-06-10T11:41:37.034Z,32.60
2018-06-10T11:44:05.181Z,31.53
2018-06-10T11:46:33.319Z,28.53
2018-06-10T11:49:01.442Z,30.50
2018-06-10T11:51:29.603Z,31.17
2018-06-10T11:53:57.775Z,31.90
2018-06-10T11:56:25.906Z,31.37
2018-06-10T11:58:54.074Z,31.57
2018-06-10T12:01:22.225Z,31.20
2018-06-10T12:03:50.378Z,30.37
2018-06-10T12:06:18.551Z,31.77
2018-06-10T12:08:46.694Z,32.03
2018-06-10T12:11:14.830Z,28.90
2018-06-10T12:13:43.008Z,32.50
2018-06-10T12:16:11.113Z,32.80
2018-06-10T12:18:39.237Z,32.70
2018-06-10T12:21:07.388Z,31.03
2018-06-10T12:23:35.609Z,30.57
2018-06-10T12:26:03.755Z,30.67
2018-06-10T12:28:31.905Z,31.20
2018-06-10T12:31:00.597Z,31.77
2018-06-10T12:33:29.758Z,30.37
2018-06-10T12:35:57.909Z,27.97
2018-06-10T12:38:26.034Z,28.33
2018-06-10T12:40:54.169Z,26.93
2018-06-10T12:43:22.318Z,25.47
2018-06-10T12:45:50.463Z,25.67
2018-06-10T12:48:18.598Z,26.37
2018-06-10T12:50:46.734Z,24.97
2018-06-10T12:53:14.870Z,23.97
2018-06-10T12:55:42.993Z,24.30
2018-06-10T12:58:11.146Z,25.13
2018-06-10T13:00:39.305Z,24.80
2018-06-10T13:03:07.766Z,23.57
2018-06-10T13:05:35.917Z,24.60
2018-06-10T13:08:04.038Z,24.33
2018-06-10T13:10:32.202Z,22.17
2018-06-10T13:13:00.355Z,22.13
2018-06-10T13:15:28.492Z,21.93
2018-06-10T13:17:56.642Z,22.03
2018-06-10T13:20:24.798Z,22.10
2018-06-10T13:22:52.919Z,20.50
2018-06-10T13:25:21.053Z,20.53
2018-06-10T13:27:49.194Z,19.87
2018-06-10T13:30:17.323Z,18.57
2018-06-10T13:32:45.477Z,19.43
2018-06-10T13:35:14.037Z,19.87
2018-06-10T13:37:42.166Z,19.20
2018-06-10T13:40:10.293Z,18.80
2018-06-10T13:42:38.436Z,19.80
2018-06-10T13:45:06.598Z,19.87
2018-06-10T13:47:34.732Z,19.20
2018-06-10T13:50:02.881Z,19.00
2018-06-10T13:52:31.018Z,19.57
2018-06-10T13:54:59.830Z,17.60
2018-06-10T13:57:28.009Z,16.73
2018-06-10T13:59:56.162Z,17.73
2018-06-10T14:02:24.317Z,16.83
2018-06-10T14:04:52.474Z,16.50
2018-06-10T14:07:20.659Z,16.67
2018-06-10T14:09:48.795Z,15.00
2018-06-10T14:12:16.945Z,15.97
2018-06-10T14:14:45.084Z,16.33
2018-06-10T14:17:13.222Z,16.03
2018-06-10T14:19:41.362Z,22.20
2018-06-10T14:22:09.514Z,16.80
2018-06-10T14:24:37.658Z,18.87
2018-06-10T14:27:05.790Z,16.37
2018-06-10T14:29:33.915Z,17.53
2018-06-10T14:32:02.054Z,17.70
2018-06-10T14:34:30.189Z,17.80
2018-06-10T14:36:58.343Z,17.83
2018-06-10T14:39:26.508Z,17.73
2018-06-10T14:41:54.634Z,16.57
2018-06-10T14:44:22.774Z,16.53
2018-06-10T14:46:50.898Z,17.30
2018-06-10T14:49:19.037Z,15.50
2018-06-10T14:51:47.169Z,17.10
2018-06-10T14:54:15.334Z,16.07
2018-06-10T14:56:43.469Z,16.93
2018-06-10T14:59:11.643Z,14.93
2018-06-10T15:01:39.854Z,15.63
2018-06-10T15:04:08.002Z,15.07
2018-06-10T15:06:36.125Z,21.63
2018-06-10T15:09:08.822Z,16.07
2018-06-10T15:11:36.960Z,14.27
2018-06-10T15:14:05.094Z,15.07
2018-06-10T15:16:33.225Z,14.30
2018-06-10T15:19:01.359Z,13.17
2018-06-10T15:21:29.500Z,13.43
2018-06-10T15:23:57.648Z,13.30
2018-06-10T15:26:25.785Z,16.30
2018-06-10T15:28:53.905Z,13.87
2018-06-10T15:31:22.053Z,15.03
2018-06-10T15:33:50.196Z,13.97
2018-06-10T15:36:18.337Z,14.67
2018-06-10T15:38:46.478Z,13.37
2018-06-10T15:41:14.617Z,15.00
2018-06-10T15:43:42.768Z,12.97
2018-06-10T15:46:10.913Z,12.27
2018-06-10T15:48:39.045Z,12.90
2018-06-10T15:51:07.162Z,14.53
2018-06-10T15:53:35.309Z,13.97
2018-06-10T15:56:03.455Z,16.57
2018-06-10T15:58:31.602Z,14.20
2018-06-10T16:00:59.770Z,12.27
2018-06-10T16:03:27.922Z,13.00
2018-06-10T16:05:56.062Z,11.73
2018-06-10T16:08:24.201Z,11.93
2018-06-10T16:10:52.363Z,16.00
2018-06-10T16:13:20.484Z,11.20
2018-06-10T16:15:48.623Z,11.43
2018-06-10T16:18:16.741Z,11.03
2018-06-10T16:20:44.873Z,11.93
2018-06-10T16:23:13.007Z,11.00
2018-06-10T16:25:41.149Z,12.10
2018-06-10T16:28:09.286Z,11.40
2018-06-10T16:30:37.428Z,9.73
2018-06-10T16:33:05.553Z,9.83
2018-06-10T16:35:33.670Z,9.67
2018-06-10T16:38:01.830Z,9.37
2018-06-10T16:40:29.963Z,10.70
2018-06-10T16:42:58.097Z,10.00
2018-06-10T16:45:26.224Z,10.87
2018-06-10T16:47:54.362Z,9.37
2018-06-10T16:50:22.487Z,10.73
2018-06-10T16:52:50.617Z,9.97
2018-06-10T16:55:18.740Z,10.00
2018-06-10T16:57:46.877Z,10.37
2018-06-10T17:00:15.014Z,9.80
2018-06-10T17:02:43.154Z,9.77
2018-06-10T17:05:11.290Z,11.13
2018-06-10T17:07:39.445Z,11.00
2018-06-10T17:10:07.578Z,11.20
2018-06-10T17:12:35.706Z,10.53
2018-06-10T17:15:03.831Z,10.40
2018-06-10T17:17:31.958Z,11.43
2018-06-10T17:20:00.090Z,9.60
2018-06-10T17:22:28.231Z,10.93
2018-06-10T17:24:56.353Z,12.53
2018-06-10T17:27:24.504Z,11.03
2018-06-10T17:29:52.646Z,11.43
2018-06-10T17:32:20.769Z,10.83
2018-06-10T17:34:48.899Z,10.67
2018-06-10T17:37:17.050Z,11.27
2018-06-10T17:39:45.170Z,13.53
2018-06-10T17:42:13.310Z,11.97
2018-06-10T17:44:41.433Z,11.70
2018-06-10T17:47:09.565Z,12.60
2018-06-10T17:49:37.698Z,11.50
2018-06-10T17:52:05.838Z,15.30
2018-06-10T17:54:33.986Z,14.47
2018-06-10T17:57:02.118Z,12.77
2018-06-10T17:59:30.270Z,16.07
2018-06-10T18:01:58.416Z,13.17
2018-06-10T18:04:26.566Z,12.30
2018-06-10T18:06:54.701Z,13.77
2018-06-10T18:09:22.849Z,15.47
2018-06-10T18:11:50.974Z,15.07
2018-06-10T18:14:19.113Z,16.80
2018-06-10T18:16:47.566Z,16.53
2018-06-10T18:19:15.698Z,16.03
2018-06-10T18:21:43.830Z,16.30
2018-06-10T18:24:11.969Z,18.43
2018-06-10T18:26:40.126Z,16.10
2018-06-10T18:29:08.277Z,15.40
2018-06-10T18:31:36.437Z,17.00
2018-06-10T18:34:04.627Z,15.67
2018-06-10T18:36:32.762Z,16.17
2018-06-10T18:39:00.897Z,18.70
2018-06-10T18:41:29.054Z,16.00
2018-06-10T18:43:57.182Z,17.53
2018-06-10T18:46:25.346Z,16.00
2018-06-10T18:48:53.478Z,17.70
2018-06-10T18:51:21.630Z,16.47
2018-06-10T18:53:49.837Z,17.43
2018-06-10T18:56:18.015Z,18.93
2018-06-10T18:58:46.153Z,19.47
2018-06-10T19:01:14.309Z,18.17
2018-06-10T19:03:42.467Z,18.97
2018-06-10T19:06:10.621Z,18.87
2018-06-10T19:08:38.775Z,18.67
2018-06-10T19:11:06.911Z,20.07
2018-06-10T19:13:35.065Z,19.77
2018-06-10T19:16:03.192Z,20.97
2018-06-10T19:18:31.335Z,19.47
2018-06-10T19:20:59.465Z,19.40
2018-06-10T19:23:27.617Z,20.40
2018-06-10T19:25:55.774Z,20.10
2018-06-10T19:28:23.922Z,20.53
2018-06-10T19:30:52.061Z,20.10
2018-06-10T19:33:20.217Z,22.83
2018-06-10T19:35:48.363Z,20.70
2018-06-10T19:38:16.541Z,19.87
2018-06-10T19:40:44.687Z,25.73
2018-06-10T19:43:12.840Z,21.07
2018-06-10T19:45:40.982Z,20.93
2018-06-10T19:48:09.131Z,25.20
2018-06-10T19:50:37.283Z,22.73
2018-06-10T19:53:05.889Z,20.90
2018-06-10T19:55:34.029Z,20.60
2018-06-10T19:58:02.179Z,22.37
2018-06-10T20:00:30.336Z,22.33
2018-06-10T20:02:58.534Z,21.77
2018-06-10T20:05:26.673Z,23.67
2018-06-10T20:07:54.822Z,21.17
2018-06-10T20:10:23.911Z,21.53
2018-06-10T20:12:52.118Z,23.83
2018-06-10T20:15:20.218Z,21.73
2018-06-10T20:17:48.337Z,19.73
2018-06-10T20:20:16.493Z,20.83
2018-06-10T20:22:44.908Z,23.03
2018-06-10T20:25:13.059Z,22.13
2018-06-10T20:27:41.206Z,25.47
2018-06-10T20:30:09.381Z,25.13
2018-06-10T20:32:37.591Z,23.07
2018-06-10T20:35:05.748Z,21.13
2018-06-10T20:37:33.895Z,23.73
2018-06-10T20:40:03.154Z,26.77
2018-06-10T20:42:36.500Z,26.40
2018-06-10T20:45:05.947Z,22.27
2018-06-10T20:47:36.622Z,22.77
2018-06-10T20:50:08.643Z,23.43
2018-06-10T20:52:39.092Z,29.27
2018-06-10T20:55:14.344Z,28.07
2018-06-10T20:57:44.056Z,25.00
2018-06-10T21:00:14.219Z,29.63
2018-06-10T21:02:42.478Z,23.90
2018-06-10T21:05:12.141Z,25.27
2018-06-10T21:07:43.275Z,25.00
2018-06-10T21:10:11.663Z,27.87
2018-06-10T21:12:40.537Z,25.30
2018-06-10T21:15:09.591Z,28.30
2018-06-10T21:17:38.601Z,25.07
2018-06-10T21:20:09.005Z,26.40
2018-06-10T21:22:39.259Z,25.33
2018-06-10T21:25:07.522Z,30.43
2018-06-10T21:27:36.501Z,27.57
2018-06-10T21:30:05.392Z,26.50
2018-06-10T21:32:33.815Z,25.20
2018-06-10T21:35:04.250Z,26.27
2018-06-10T21:37:32.878Z,27.00
2018-06-10T21:40:01.062Z,26.77
2018-06-10T21:42:30.365Z,24.00
2018-06-10T21:44:59.137Z,27.97
2018-06-10T21:47:28.088Z,26.37
2018-06-10T21:49:57.897Z,27.67
2018-06-10T21:52:26.087Z,25.37
2018-06-10T21:54:54.276Z,24.53
2018-06-10T21:57:22.437Z,24.13
2018-06-10T21:59:50.569Z,27.83
2018-06-10T22:02:18.747Z,26.80
2018-06-10T22:04:46.938Z,27.30
2018-06-10T22:07:15.060Z,25.20
2018-06-10T22:09:43.182Z,24.10
2018-06-10T22:12:11.330Z,26.33
2018-06-10T22:14:39.485Z,27.67
2018-06-10T22:17:07.613Z,25.97
2018-06-10T22:19:35.761Z,28.97
2018-06-10T22:22:03.892Z,26.10
2018-06-10T22:24:32.037Z,24.97
2018-06-10T22:27:00.161Z,26.13
2018-06-10T22:29:28.294Z,26.20
2018-06-10T22:31:56.442Z,25.70
2018-06-10T22:34:24.586Z,26.53
2018-06-10T22:36:52.783Z,26.63
2018-06-10T22:39:20.895Z,25.23
2018-06-10T22:41:49.060Z,22.67
2018-06-10T22:44:17.222Z,22.63
2018-06-10T22:46:45.350Z,23.80
2018-06-10T22:49:14.289Z,26.73
2018-06-10T22:51:42.425Z,24.70
2018-06-10T22:54:16.117Z,24.73
2018-06-10T22:56:44.243Z,26.40
2018-06-10T22:59:12.375Z,26.17
2018-06-10T23:01:40.502Z,23.97
2018-06-10T23:04:08.638Z,23.03
2018-06-10T23:06:36.777Z,24.60
2018-06-10T23:09:06.158Z,24.67
2018-06-10T23:11:34.277Z,23.03
2018-06-10T23:14:02.421Z,27.80
2018-06-10T23:16:30.562Z,26.30
2018-06-10T23:18:58.746Z,26.77
2018-06-10T23:21:26.890Z,23.57
2018-06-10T23:23:55.080Z,30.10
2018-06-10T23:26:23.206Z,26.23
2018-06-10T23:28:51.339Z,23.90
2018-06-10T23:31:19.477Z,23.87
2018-06-10T23:33:47.598Z,22.87
2018-06-10T23:36:15.742Z,24.20
2018-06-10T23:38:43.880Z,26.20
2018-06-10T23:41:12.009Z,26.53
2018-06-10T23:43:40.142Z,23.57
2018-06-10T23:46:08.260Z,25.03
2018-06-10T23:48:36.386Z,27.57
2018-06-10T23:51:04.528Z,24.10
2018-06-10T23:53:32.681Z,23.97
2018-06-10T23:56:00.838Z,25.47
2018-06-10T23:58:28.977Z,23.53
